sensor_id;sensor_type;location;lat;lon;timestamp;P1;durP1;ratioP1;P2;durP2;ratioP2
62289;SDS011;48284;46.828;29.480;2022-10-26T00:01:19;9.30;;;6.32;;
62289;SDS011;48284;46.828;29.480;2022-10-26T00:03:48;8.48;;;6.60;;
62289;SDS011;48284;46.828;29.480;2022-10-26T00:06:18;8.30;;;6.18;;
62289;SDS011;48284;46.828;29.480;2022-10-26T00:08:49;10.10;;;6.95;;
62289;SDS011;48284;46.828;29.480;2022-10-26T00:11:18;9.35;;;6.25;;
62289;SDS011;48284;46.828;29.480;2022-10-26T00:13:47;8.63;;;6.32;;
62289;SDS011;48284;46.828;29.480;2022-10-26T00:16:17;9.05;;;6.40;;
62289;SDS011;48284;46.828;29.480;2022-10-26T00:18:48;8.48;;;6.28;;
62289;SDS011;48284;46.828;29.480;2022-10-26T00:21:17;8.63;;;6.18;;
62289;SDS011;48284;46.828;29.480;2022-10-26T00:23:46;8.57;;;6.15;;
62289;SDS011;48284;46.828;29.480;2022-10-26T00:26:16;8.18;;;6.10;;
62289;SDS011;48284;46.828;29.480;2022-10-26T00:28:45;7.65;;;5.72;;
62289;SDS011;48284;46.828;29.480;2022-10-26T00:31:15;8.38;;;5.65;;
62289;SDS011;48284;46.828;29.480;2022-10-26T00:33:43;10.20;;;6.00;;
62289;SDS011;48284;46.828;29.480;2022-10-26T00:36:12;8.55;;;5.78;;
62289;SDS011;48284;46.828;29.480;2022-10-26T00:38:46;8.73;;;6.10;;
62289;SDS011;48284;46.828;29.480;2022-10-26T00:41:18;8.73;;;6.30;;
62289;SDS011;48284;46.828;29.480;2022-10-26T00:43:48;8.13;;;5.78;;
62289;SDS011;48284;46.828;29.480;2022-10-26T00:46:18;8.32;;;5.75;;
62289;SDS011;48284;46.828;29.480;2022-10-26T00:48:50;7.78;;;5.72;;
62289;SDS011;48284;46.828;29.480;2022-10-26T00:51:22;9.77;;;5.72;;
62289;SDS011;48284;46.828;29.480;2022-10-26T00:53:54;7.93;;;5.55;;
62289;SDS011;48284;46.828;29.480;2022-10-26T00:58:54;7.50;;;5.60;;
62289;SDS011;48284;46.828;29.480;2022-10-26T01:01:24;9.23;;;5.60;;
62289;SDS011;48284;46.828;29.480;2022-10-26T01:03:52;6.45;;;5.30;;
62289;SDS011;48284;46.828;29.480;2022-10-26T01:06:22;6.75;;;5.05;;
62289;SDS011;48284;46.828;29.480;2022-10-26T01:08:51;8.23;;;5.32;;
62289;SDS011;48284;46.828;29.480;2022-10-26T01:11:19;6.95;;;4.88;;
62289;SDS011;48284;46.828;29.480;2022-10-26T01:13:49;6.95;;;5.38;;
62289;SDS011;48284;46.828;29.480;2022-10-26T01:16:27;6.78;;;4.80;;
62289;SDS011;48284;46.828;29.480;2022-10-26T01:19:21;7.40;;;5.00;;
62289;SDS011;48284;46.828;29.480;2022-10-26T01:22:18;6.78;;;4.88;;
62289;SDS011;48284;46.828;29.480;2022-10-26T01:24:57;10.70;;;5.40;;
62289;SDS011;48284;46.828;29.480;2022-10-26T01:27:31;5.53;;;4.85;;
62289;SDS011;48284;46.828;29.480;2022-10-26T01:30:12;5.68;;;4.93;;
62289;SDS011;48284;46.828;29.480;2022-10-26T01:33:02;7.03;;;4.93;;
62289;SDS011;48284;46.828;29.480;2022-10-26T01:35:47;5.97;;;4.40;;
62289;SDS011;48284;46.828;29.480;2022-10-26T01:38:24;7.93;;;4.45;;
62289;SDS011;48284;46.828;29.480;2022-10-26T01:43:34;7.30;;;4.78;;
62289;SDS011;48284;46.828;29.480;2022-10-26T01:46:08;5.85;;;4.07;;
62289;SDS011;48284;46.828;29.480;2022-10-26T01:48:38;6.30;;;4.28;;
62289;SDS011;48284;46.828;29.480;2022-10-26T01:51:08;6.93;;;4.25;;
62289;SDS011;48284;46.828;29.480;2022-10-26T01:53:41;5.53;;;4.25;;
62289;SDS011;48284;46.828;29.480;2022-10-26T01:56:13;5.68;;;3.90;;
62289;SDS011;48284;46.828;29.480;2022-10-26T01:58:53;4.60;;;4.00;;
62289;SDS011;48284;46.828;29.480;2022-10-26T02:01:37;7.10;;;3.97;;
62289;SDS011;48284;46.828;29.480;2022-10-26T02:04:40;5.28;;;4.30;;
62289;SDS011;48284;46.828;29.480;2022-10-26T02:07:24;4.97;;;3.92;;
62289;SDS011;48284;46.828;29.480;2022-10-26T02:10:04;5.45;;;3.65;;
62289;SDS011;48284;46.828;29.480;2022-10-26T02:12:44;4.95;;;3.63;;
62289;SDS011;48284;46.828;29.480;2022-10-26T02:15:43;5.93;;;4.30;;
62289;SDS011;48284;46.828;29.480;2022-10-26T02:18:19;5.35;;;3.78;;
62289;SDS011;48284;46.828;29.480;2022-10-26T02:20:57;6.22;;;3.75;;
62289;SDS011;48284;46.828;29.480;2022-10-26T02:23:31;4.57;;;3.50;;
62289;SDS011;48284;46.828;29.480;2022-10-26T02:26:02;5.70;;;3.70;;
62289;SDS011;48284;46.828;29.480;2022-10-26T02:28:38;6.00;;;3.90;;
62289;SDS011;48284;46.828;29.480;2022-10-26T02:31:12;5.25;;;3.45;;
62289;SDS011;48284;46.828;29.480;2022-10-26T02:33:44;4.03;;;3.05;;
62289;SDS011;48284;46.828;29.480;2022-10-26T02:36:17;4.22;;;3.28;;
62289;SDS011;48284;46.828;29.480;2022-10-26T02:38:51;5.35;;;3.17;;
62289;SDS011;48284;46.828;29.480;2022-10-26T02:41:23;3.58;;;2.90;;
62289;SDS011;48284;46.828;29.480;2022-10-26T02:43:56;5.57;;;3.42;;
62289;SDS011;48284;46.828;29.480;2022-10-26T02:46:29;3.15;;;2.58;;
62289;SDS011;48284;46.828;29.480;2022-10-26T02:49:00;4.50;;;3.00;;
62289;SDS011;48284;46.828;29.480;2022-10-26T02:51:29;3.67;;;3.03;;
62289;SDS011;48284;46.828;29.480;2022-10-26T02:54:08;4.50;;;3.13;;
62289;SDS011;48284;46.828;29.480;2022-10-26T02:56:41;3.50;;;2.55;;
62289;SDS011;48284;46.828;29.480;2022-10-26T02:59:16;5.38;;;3.60;;
62289;SDS011;48284;46.828;29.480;2022-10-26T03:01:47;4.22;;;3.60;;
62289;SDS011;48284;46.828;29.480;2022-10-26T03:04:19;4.20;;;3.10;;
62289;SDS011;48284;46.828;29.480;2022-10-26T03:06:55;3.88;;;3.03;;
62289;SDS011;48284;46.828;29.480;2022-10-26T03:09:24;3.67;;;2.58;;
62289;SDS011;48284;46.828;29.480;2022-10-26T03:11:53;3.40;;;2.83;;
62289;SDS011;48284;46.828;29.480;2022-10-26T03:14:22;3.70;;;3.17;;
62289;SDS011;48284;46.828;29.480;2022-10-26T03:16:51;4.78;;;2.92;;
62289;SDS011;48284;46.828;29.480;2022-10-26T03:19:21;3.35;;;2.65;;
62289;SDS011;48284;46.828;29.480;2022-10-26T03:21:49;6.57;;;2.67;;
62289;SDS011;48284;46.828;29.480;2022-10-26T03:24:18;5.32;;;2.78;;
62289;SDS011;48284;46.828;29.480;2022-10-26T03:26:46;3.47;;;2.60;;
62289;SDS011;48284;46.828;29.480;2022-10-26T03:29:15;3.60;;;2.80;;
62289;SDS011;48284;46.828;29.480;2022-10-26T03:31:43;3.58;;;2.50;;
62289;SDS011;48284;46.828;29.480;2022-10-26T03:34:12;2.90;;;2.50;;
62289;SDS011;48284;46.828;29.480;2022-10-26T03:36:42;3.70;;;2.58;;
62289;SDS011;48284;46.828;29.480;2022-10-26T03:39:10;3.10;;;2.70;;
62289;SDS011;48284;46.828;29.480;2022-10-26T03:41:39;2.83;;;2.50;;
62289;SDS011;48284;46.828;29.480;2022-10-26T03:44:07;3.65;;;2.83;;
62289;SDS011;48284;46.828;29.480;2022-10-26T03:46:36;3.95;;;2.70;;
62289;SDS011;48284;46.828;29.480;2022-10-26T03:49:04;3.03;;;2.53;;
62289;SDS011;48284;46.828;29.480;2022-10-26T03:51:32;4.93;;;2.67;;
62289;SDS011;48284;46.828;29.480;2022-10-26T03:54:02;3.25;;;2.15;;
62289;SDS011;48284;46.828;29.480;2022-10-26T03:56:31;2.60;;;2.13;;
62289;SDS011;48284;46.828;29.480;2022-10-26T03:59:00;3.97;;;2.50;;
62289;SDS011;48284;46.828;29.480;2022-10-26T04:01:28;2.65;;;2.25;;
62289;SDS011;48284;46.828;29.480;2022-10-26T04:03:57;2.90;;;2.42;;
62289;SDS011;48284;46.828;29.480;2022-10-26T04:06:25;4.45;;;2.30;;
62289;SDS011;48284;46.828;29.480;2022-10-26T04:08:53;4.97;;;2.45;;
62289;SDS011;48284;46.828;29.480;2022-10-26T04:11:29;6.13;;;2.50;;
62289;SDS011;48284;46.828;29.480;2022-10-26T04:13:57;2.75;;;2.47;;
62289;SDS011;48284;46.828;29.480;2022-10-26T04:16:26;2.88;;;2.20;;
62289;SDS011;48284;46.828;29.480;2022-10-26T04:18:59;10.10;;;2.83;;
62289;SDS011;48284;46.828;29.480;2022-10-26T04:23:58;10.45;;;3.00;;
62289;SDS011;48284;46.828;29.480;2022-10-26T04:26:28;19.38;;;3.83;;
62289;SDS011;48284;46.828;29.480;2022-10-26T04:28:57;15.80;;;4.03;;
62289;SDS011;48284;46.828;29.480;2022-10-26T04:31:25;30.83;;;5.68;;
62289;SDS011;48284;46.828;29.480;2022-10-26T04:33:53;19.10;;;5.13;;
62289;SDS011;48284;46.828;29.480;2022-10-26T04:36:22;22.90;;;5.65;;
62289;SDS011;48284;46.828;29.480;2022-10-26T04:38:50;31.05;;;7.03;;
62289;SDS011;48284;46.828;29.480;2022-10-26T04:41:19;29.60;;;6.22;;
62289;SDS011;48284;46.828;29.480;2022-10-26T04:43:49;34.25;;;7.28;;
62289;SDS011;48284;46.828;29.480;2022-10-26T04:46:17;32.05;;;6.90;;
62289;SDS011;48284;46.828;29.480;2022-10-26T04:48:46;25.35;;;6.30;;
62289;SDS011;48284;46.828;29.480;2022-10-26T04:51:15;27.45;;;6.70;;
62289;SDS011;48284;46.828;29.480;2022-10-26T04:56:12;27.02;;;6.50;;
62289;SDS011;48284;46.828;29.480;2022-10-26T04:58:40;29.73;;;7.50;;
62289;SDS011;48284;46.828;29.480;2022-10-26T05:01:10;32.90;;;7.43;;
62289;SDS011;48284;46.828;29.480;2022-10-26T05:03:38;32.75;;;7.47;;
62289;SDS011;48284;46.828;29.480;2022-10-26T05:06:07;34.47;;;7.20;;
62289;SDS011;48284;46.828;29.480;2022-10-26T05:08:35;29.40;;;7.22;;
62289;SDS011;48284;46.828;29.480;2022-10-26T05:11:04;38.53;;;7.85;;
62289;SDS011;48284;46.828;29.480;2022-10-26T05:13:32;26.42;;;7.13;;
62289;SDS011;48284;46.828;29.480;2022-10-26T05:16:01;34.92;;;7.97;;
62289;SDS011;48284;46.828;29.480;2022-10-26T05:18:31;37.47;;;7.95;;
62289;SDS011;48284;46.828;29.480;2022-10-26T05:20:59;23.35;;;7.30;;
62289;SDS011;48284;46.828;29.480;2022-10-26T05:23:27;29.55;;;6.53;;
62289;SDS011;48284;46.828;29.480;2022-10-26T05:25:56;25.23;;;6.40;;
62289;SDS011;48284;46.828;29.480;2022-10-26T05:28:24;23.38;;;5.78;;
62289;SDS011;48284;46.828;29.480;2022-10-26T05:30:53;25.95;;;6.68;;
62289;SDS011;48284;46.828;29.480;2022-10-26T05:33:21;24.38;;;6.07;;
62289;SDS011;48284;46.828;29.480;2022-10-26T05:35:53;23.13;;;6.28;;
62289;SDS011;48284;46.828;29.480;2022-10-26T05:38:22;22.92;;;5.78;;
62289;SDS011;48284;46.828;29.480;2022-10-26T05:40:55;18.80;;;5.45;;
62289;SDS011;48284;46.828;29.480;2022-10-26T05:45:55;18.23;;;5.28;;
62289;SDS011;48284;46.828;29.480;2022-10-26T05:48:23;20.98;;;5.78;;
62289;SDS011;48284;46.828;29.480;2022-10-26T05:50:53;22.70;;;6.65;;
62289;SDS011;48284;46.828;29.480;2022-10-26T05:53:25;18.17;;;5.82;;
62289;SDS011;48284;46.828;29.480;2022-10-26T05:55:54;24.13;;;5.75;;
62289;SDS011;48284;46.828;29.480;2022-10-26T05:58:23;19.65;;;5.60;;
62289;SDS011;48284;46.828;29.480;2022-10-26T06:00:57;23.73;;;5.65;;
62289;SDS011;48284;46.828;29.480;2022-10-26T06:03:41;19.52;;;5.45;;
62289;SDS011;48284;46.828;29.480;2022-10-26T06:06:25;21.90;;;5.60;;
62289;SDS011;48284;46.828;29.480;2022-10-26T06:08:55;22.85;;;5.82;;
62289;SDS011;48284;46.828;29.480;2022-10-26T06:13:53;19.00;;;4.85;;
62289;SDS011;48284;46.828;29.480;2022-10-26T06:16:28;18.88;;;5.07;;
62289;SDS011;48284;46.828;29.480;2022-10-26T06:19:04;14.27;;;4.43;;
62289;SDS011;48284;46.828;29.480;2022-10-26T06:21:46;17.50;;;4.55;;
62289;SDS011;48284;46.828;29.480;2022-10-26T06:24:24;22.98;;;5.90;;
62289;SDS011;48284;46.828;29.480;2022-10-26T06:27:02;17.85;;;5.35;;
62289;SDS011;48284;46.828;29.480;2022-10-26T06:29:47;18.63;;;4.53;;
62289;SDS011;48284;46.828;29.480;2022-10-26T06:32:22;22.42;;;4.63;;
62289;SDS011;48284;46.828;29.480;2022-10-26T06:34:52;15.82;;;4.55;;
62289;SDS011;48284;46.828;29.480;2022-10-26T06:37:34;14.82;;;3.85;;
62289;SDS011;48284;46.828;29.480;2022-10-26T06:40:04;13.98;;;4.80;;
62289;SDS011;48284;46.828;29.480;2022-10-26T06:42:34;14.48;;;4.63;;
62289;SDS011;48284;46.828;29.480;2022-10-26T06:45:03;11.05;;;4.15;;
62289;SDS011;48284;46.828;29.480;2022-10-26T06:47:34;17.02;;;4.72;;
62289;SDS011;48284;46.828;29.480;2022-10-26T06:50:11;17.75;;;5.13;;
62289;SDS011;48284;46.828;29.480;2022-10-26T06:52:56;15.90;;;3.97;;
62289;SDS011;48284;46.828;29.480;2022-10-26T06:55:36;16.98;;;5.00;;
62289;SDS011;48284;46.828;29.480;2022-10-26T06:58:07;16.77;;;4.10;;
62289;SDS011;48284;46.828;29.480;2022-10-26T07:00:41;16.25;;;4.18;;
62289;SDS011;48284;46.828;29.480;2022-10-26T07:03:11;16.70;;;4.63;;
62289;SDS011;48284;46.828;29.480;2022-10-26T07:05:40;11.70;;;4.63;;
62289;SDS011;48284;46.828;29.480;2022-10-26T07:08:11;18.83;;;5.20;;
62289;SDS011;48284;46.828;29.480;2022-10-26T07:10:39;26.60;;;5.03;;
62289;SDS011;48284;46.828;29.480;2022-10-26T07:13:09;17.15;;;4.80;;
62289;SDS011;48284;46.828;29.480;2022-10-26T07:18:06;14.65;;;3.88;;
62289;SDS011;48284;46.828;29.480;2022-10-26T07:23:04;17.98;;;4.57;;
62289;SDS011;48284;46.828;29.480;2022-10-26T07:25:38;15.02;;;4.70;;
62289;SDS011;48284;46.828;29.480;2022-10-26T07:28:07;13.43;;;4.47;;
62289;SDS011;48284;46.828;29.480;2022-10-26T07:30:37;10.73;;;3.97;;
62289;SDS011;48284;46.828;29.480;2022-10-26T07:33:08;11.98;;;3.95;;
62289;SDS011;48284;46.828;29.480;2022-10-26T07:35:37;13.38;;;4.32;;
62289;SDS011;48284;46.828;29.480;2022-10-26T07:38:06;18.10;;;5.25;;
62289;SDS011;48284;46.828;29.480;2022-10-26T07:40:35;12.25;;;3.83;;
62289;SDS011;48284;46.828;29.480;2022-10-26T07:43:05;14.52;;;3.95;;
62289;SDS011;48284;46.828;29.480;2022-10-26T07:45:34;14.40;;;4.00;;
62289;SDS011;48284;46.828;29.480;2022-10-26T07:48:03;17.58;;;4.82;;
62289;SDS011;48284;46.828;29.480;2022-10-26T07:50:32;15.07;;;4.53;;
62289;SDS011;48284;46.828;29.480;2022-10-26T07:53:00;15.25;;;4.63;;
62289;SDS011;48284;46.828;29.480;2022-10-26T07:55:29;9.88;;;3.97;;
62289;SDS011;48284;46.828;29.480;2022-10-26T07:57:57;14.02;;;4.32;;
62289;SDS011;48284;46.828;29.480;2022-10-26T08:00:27;9.80;;;3.45;;
62289;SDS011;48284;46.828;29.480;2022-10-26T08:02:56;9.98;;;3.70;;
62289;SDS011;48284;46.828;29.480;2022-10-26T08:05:25;9.23;;;4.10;;
62289;SDS011;48284;46.828;29.480;2022-10-26T08:07:53;9.27;;;4.05;;
62289;SDS011;48284;46.828;29.480;2022-10-26T08:10:22;11.10;;;4.25;;
62289;SDS011;48284;46.828;29.480;2022-10-26T08:12:51;8.82;;;4.22;;
62289;SDS011;48284;46.828;29.480;2022-10-26T08:15:20;14.88;;;4.35;;
62289;SDS011;48284;46.828;29.480;2022-10-26T08:17:50;10.95;;;4.28;;
62289;SDS011;48284;46.828;29.480;2022-10-26T08:20:19;8.05;;;3.50;;
62289;SDS011;48284;46.828;29.480;2022-10-26T08:22:47;7.18;;;3.55;;
62289;SDS011;48284;46.828;29.480;2022-10-26T08:25:16;8.85;;;3.60;;
62289;SDS011;48284;46.828;29.480;2022-10-26T08:27:47;9.90;;;3.78;;
62289;SDS011;48284;46.828;29.480;2022-10-26T08:30:15;8.20;;;3.28;;
62289;SDS011;48284;46.828;29.480;2022-10-26T08:37:43;8.77;;;3.60;;
62289;SDS011;48284;46.828;29.480;2022-10-26T08:40:13;8.48;;;3.45;;
62289;SDS011;48284;46.828;29.480;2022-10-26T08:42:44;8.50;;;3.20;;
62289;SDS011;48284;46.828;29.480;2022-10-26T08:45:20;6.55;;;3.30;;
62289;SDS011;48284;46.828;29.480;2022-10-26T08:48:02;8.52;;;3.60;;
62289;SDS011;48284;46.828;29.480;2022-10-26T08:50:36;8.48;;;3.75;;
62289;SDS011;48284;46.828;29.480;2022-10-26T08:53:11;8.32;;;3.90;;
62289;SDS011;48284;46.828;29.480;2022-10-26T08:58:21;8.32;;;3.95;;
62289;SDS011;48284;46.828;29.480;2022-10-26T09:00:55;7.25;;;3.33;;
62289;SDS011;48284;46.828;29.480;2022-10-26T09:03:24;10.55;;;3.97;;
62289;SDS011;48284;46.828;29.480;2022-10-26T09:06:00;7.63;;;3.50;;
62289;SDS011;48284;46.828;29.480;2022-10-26T09:08:41;8.98;;;3.22;;
62289;SDS011;48284;46.828;29.480;2022-10-26T09:11:20;11.95;;;4.15;;
62289;SDS011;48284;46.828;29.480;2022-10-26T09:14:03;9.05;;;3.78;;
62289;SDS011;48284;46.828;29.480;2022-10-26T09:19:27;15.93;;;3.83;;
62289;SDS011;48284;46.828;29.480;2022-10-26T09:22:09;6.45;;;3.20;;
62289;SDS011;48284;46.828;29.480;2022-10-26T09:24:46;8.25;;;3.90;;
62289;SDS011;48284;46.828;29.480;2022-10-26T09:27:20;9.18;;;4.18;;
62289;SDS011;48284;46.828;29.480;2022-10-26T09:29:54;13.68;;;4.47;;
62289;SDS011;48284;46.828;29.480;2022-10-26T09:32:25;8.15;;;3.90;;
62289;SDS011;48284;46.828;29.480;2022-10-26T09:35:00;10.10;;;4.00;;
62289;SDS011;48284;46.828;29.480;2022-10-26T09:37:35;6.72;;;3.95;;
62289;SDS011;48284;46.828;29.480;2022-10-26T09:40:10;6.68;;;3.90;;
62289;SDS011;48284;46.828;29.480;2022-10-26T09:42:43;6.90;;;3.55;;
62289;SDS011;48284;46.828;29.480;2022-10-26T09:45:19;7.75;;;3.78;;
62289;SDS011;48284;46.828;29.480;2022-10-26T09:47:53;7.97;;;3.50;;
62289;SDS011;48284;46.828;29.480;2022-10-26T09:50:32;8.30;;;4.32;;
62289;SDS011;48284;46.828;29.480;2022-10-26T09:53:03;6.60;;;3.55;;
62289;SDS011;48284;46.828;29.480;2022-10-26T09:55:32;8.98;;;4.60;;
62289;SDS011;48284;46.828;29.480;2022-10-26T09:58:08;7.78;;;3.95;;
62289;SDS011;48284;46.828;29.480;2022-10-26T10:00:41;9.15;;;3.70;;
62289;SDS011;48284;46.828;29.480;2022-10-26T10:03:23;4.68;;;3.10;;
62289;SDS011;48284;46.828;29.480;2022-10-26T10:05:54;5.57;;;3.42;;
62289;SDS011;48284;46.828;29.480;2022-10-26T10:08:44;5.50;;;3.53;;
62289;SDS011;48284;46.828;29.480;2022-10-26T10:11:38;7.40;;;3.63;;
62289;SDS011;48284;46.828;29.480;2022-10-26T10:14:11;6.03;;;3.60;;
62289;SDS011;48284;46.828;29.480;2022-10-26T10:16:49;7.13;;;3.78;;
62289;SDS011;48284;46.828;29.480;2022-10-26T10:19:21;6.88;;;3.78;;
62289;SDS011;48284;46.828;29.480;2022-10-26T10:21:53;5.68;;;3.67;;
62289;SDS011;48284;46.828;29.480;2022-10-26T10:24:28;6.35;;;3.58;;
62289;SDS011;48284;46.828;29.480;2022-10-26T10:26:59;8.07;;;3.70;;
62289;SDS011;48284;46.828;29.480;2022-10-26T10:29:30;3.92;;;3.35;;
62289;SDS011;48284;46.828;29.480;2022-10-26T10:32:00;5.53;;;3.47;;
62289;SDS011;48284;46.828;29.480;2022-10-26T10:34:31;6.53;;;3.85;;
62289;SDS011;48284;46.828;29.480;2022-10-26T10:37:01;5.03;;;3.75;;
62289;SDS011;48284;46.828;29.480;2022-10-26T10:39:41;5.35;;;3.60;;
62289;SDS011;48284;46.828;29.480;2022-10-26T10:42:13;5.63;;;3.97;;
62289;SDS011;48284;46.828;29.480;2022-10-26T10:44:45;6.10;;;4.07;;
62289;SDS011;48284;46.828;29.480;2022-10-26T10:47:20;5.90;;;3.60;;
62289;SDS011;48284;46.828;29.480;2022-10-26T10:49:51;5.13;;;3.33;;
62289;SDS011;48284;46.828;29.480;2022-10-26T10:52:24;6.68;;;3.45;;
62289;SDS011;48284;46.828;29.480;2022-10-26T10:57:50;5.05;;;3.33;;
62289;SDS011;48284;46.828;29.480;2022-10-26T11:00:35;7.22;;;3.33;;
62289;SDS011;48284;46.828;29.480;2022-10-26T11:03:13;3.60;;;3.03;;
62289;SDS011;48284;46.828;29.480;2022-10-26T11:05:59;4.25;;;3.13;;
62289;SDS011;48284;46.828;29.480;2022-10-26T11:08:34;5.53;;;3.38;;
62289;SDS011;48284;46.828;29.480;2022-10-26T11:11:10;4.60;;;3.45;;
62289;SDS011;48284;46.828;29.480;2022-10-26T11:13:44;3.80;;;2.90;;
62289;SDS011;48284;46.828;29.480;2022-10-26T11:16:19;4.78;;;3.22;;
62289;SDS011;48284;46.828;29.480;2022-10-26T11:18:51;5.65;;;3.47;;
62289;SDS011;48284;46.828;29.480;2022-10-26T11:21:26;5.47;;;3.22;;
62289;SDS011;48284;46.828;29.480;2022-10-26T11:24:00;5.68;;;2.80;;
62289;SDS011;48284;46.828;29.480;2022-10-26T11:26:39;4.03;;;2.70;;
62289;SDS011;48284;46.828;29.480;2022-10-26T11:29:18;3.38;;;2.55;;
62289;SDS011;48284;46.828;29.480;2022-10-26T11:31:56;5.47;;;2.90;;
62289;SDS011;48284;46.828;29.480;2022-10-26T11:34:28;4.85;;;3.08;;
62289;SDS011;48284;46.828;29.480;2022-10-26T11:37:03;5.22;;;2.88;;
62289;SDS011;48284;46.828;29.480;2022-10-26T11:39:38;3.45;;;2.67;;
62289;SDS011;48284;46.828;29.480;2022-10-26T11:42:19;5.38;;;2.95;;
62289;SDS011;48284;46.828;29.480;2022-10-26T11:44:52;6.20;;;3.13;;
62289;SDS011;48284;46.828;29.480;2022-10-26T11:47:27;5.60;;;3.30;;
62289;SDS011;48284;46.828;29.480;2022-10-26T11:50:05;4.82;;;2.97;;
62289;SDS011;48284;46.828;29.480;2022-10-26T11:52:44;4.97;;;2.90;;
62289;SDS011;48284;46.828;29.480;2022-10-26T11:55:16;4.60;;;2.90;;
62289;SDS011;48284;46.828;29.480;2022-10-26T11:57:48;4.57;;;2.75;;
62289;SDS011;48284;46.828;29.480;2022-10-26T12:00:20;4.82;;;2.80;;
62289;SDS011;48284;46.828;29.480;2022-10-26T12:02:49;4.60;;;2.75;;
62289;SDS011;48284;46.828;29.480;2022-10-26T12:05:24;4.47;;;2.88;;
62289;SDS011;48284;46.828;29.480;2022-10-26T12:08:01;4.43;;;2.70;;
62289;SDS011;48284;46.828;29.480;2022-10-26T12:10:34;3.83;;;2.63;;
62289;SDS011;48284;46.828;29.480;2022-10-26T12:13:10;4.75;;;2.72;;
62289;SDS011;48284;46.828;29.480;2022-10-26T12:15:47;6.88;;;2.63;;
62289;SDS011;48284;46.828;29.480;2022-10-26T12:18:37;5.55;;;2.90;;
62289;SDS011;48284;46.828;29.480;2022-10-26T12:21:22;6.78;;;2.85;;
62289;SDS011;48284;46.828;29.480;2022-10-26T12:23:54;5.05;;;2.95;;
62289;SDS011;48284;46.828;29.480;2022-10-26T12:29:29;3.75;;;2.65;;
62289;SDS011;48284;46.828;29.480;2022-10-26T12:32:03;5.78;;;2.90;;
62289;SDS011;48284;46.828;29.480;2022-10-26T12:34:58;11.30;;;3.72;;
62289;SDS011;48284;46.828;29.480;2022-10-26T12:37:30;10.57;;;5.43;;
62289;SDS011;48284;46.828;29.480;2022-10-26T12:43:31;7.68;;;3.80;;
62289;SDS011;48284;46.828;29.480;2022-10-26T12:52:24;6.03;;;3.70;;
62289;SDS011;48284;46.828;29.480;2022-10-26T12:55:16;5.80;;;3.53;;
62289;SDS011;48284;46.828;29.480;2022-10-26T12:58:05;4.20;;;3.30;;
62289;SDS011;48284;46.828;29.480;2022-10-26T13:00:54;7.65;;;4.35;;
62289;SDS011;48284;46.828;29.480;2022-10-26T13:03:45;4.82;;;3.45;;
62289;SDS011;48284;46.828;29.480;2022-10-26T13:06:27;7.10;;;3.38;;
62289;SDS011;48284;46.828;29.480;2022-10-26T13:09:11;4.95;;;3.65;;
62289;SDS011;48284;46.828;29.480;2022-10-26T13:11:47;5.47;;;3.50;;
62289;SDS011;48284;46.828;29.480;2022-10-26T13:14:18;5.93;;;3.55;;
62289;SDS011;48284;46.828;29.480;2022-10-26T13:16:49;7.75;;;3.28;;
62289;SDS011;48284;46.828;29.480;2022-10-26T13:19:24;4.45;;;3.65;;
62289;SDS011;48284;46.828;29.480;2022-10-26T13:21:54;6.18;;;3.85;;
62289;SDS011;48284;46.828;29.480;2022-10-26T13:24:27;4.32;;;3.38;;
62289;SDS011;48284;46.828;29.480;2022-10-26T13:33:22;5.18;;;3.83;;
62289;SDS011;48284;46.828;29.480;2022-10-26T13:36:00;6.63;;;4.03;;
62289;SDS011;48284;46.828;29.480;2022-10-26T13:38:33;4.72;;;3.58;;
62289;SDS011;48284;46.828;29.480;2022-10-26T13:41:06;6.70;;;4.05;;
62289;SDS011;48284;46.828;29.480;2022-10-26T13:43:45;5.57;;;3.80;;
62289;SDS011;48284;46.828;29.480;2022-10-26T13:46:19;6.13;;;3.70;;
62289;SDS011;48284;46.828;29.480;2022-10-26T13:48:52;7.93;;;3.63;;
62289;SDS011;48284;46.828;29.480;2022-10-26T13:51:29;5.20;;;3.88;;
62289;SDS011;48284;46.828;29.480;2022-10-26T13:54:06;7.85;;;3.40;;
62289;SDS011;48284;46.828;29.480;2022-10-26T13:56:51;5.88;;;3.67;;
62289;SDS011;48284;46.828;29.480;2022-10-26T13:59:29;5.50;;;4.05;;
62289;SDS011;48284;46.828;29.480;2022-10-26T14:02:07;4.20;;;3.67;;
62289;SDS011;48284;46.828;29.480;2022-10-26T14:04:46;6.03;;;3.80;;
62289;SDS011;48284;46.828;29.480;2022-10-26T14:07:19;5.47;;;3.72;;
62289;SDS011;48284;46.828;29.480;2022-10-26T14:09:50;7.03;;;3.42;;
62289;SDS011;48284;46.828;29.480;2022-10-26T14:12:22;5.63;;;3.70;;
62289;SDS011;48284;46.828;29.480;2022-10-26T14:14:51;7.07;;;3.63;;
62289;SDS011;48284;46.828;29.480;2022-10-26T14:17:21;7.00;;;3.28;;
62289;SDS011;48284;46.828;29.480;2022-10-26T14:19:52;5.57;;;3.63;;
62289;SDS011;48284;46.828;29.480;2022-10-26T14:22:22;4.30;;;3.13;;
62289;SDS011;48284;46.828;29.480;2022-10-26T14:24:54;5.43;;;3.20;;
62289;SDS011;48284;46.828;29.480;2022-10-26T14:27:26;3.55;;;2.90;;
62289;SDS011;48284;46.828;29.480;2022-10-26T14:29:58;3.90;;;3.00;;
62289;SDS011;48284;46.828;29.480;2022-10-26T14:32:48;2.95;;;2.60;;
62289;SDS011;48284;46.828;29.480;2022-10-26T14:35:18;5.38;;;2.80;;
62289;SDS011;48284;46.828;29.480;2022-10-26T14:37:53;3.78;;;2.88;;
62289;SDS011;48284;46.828;29.480;2022-10-26T14:40:26;4.68;;;2.92;;
62289;SDS011;48284;46.828;29.480;2022-10-26T14:42:58;4.55;;;3.17;;
62289;SDS011;48284;46.828;29.480;2022-10-26T14:45:28;4.65;;;2.85;;
62289;SDS011;48284;46.828;29.480;2022-10-26T14:48:19;5.25;;;2.80;;
62289;SDS011;48284;46.828;29.480;2022-10-26T14:50:56;2.72;;;2.53;;
62289;SDS011;48284;46.828;29.480;2022-10-26T14:53:28;4.25;;;3.08;;
62289;SDS011;48284;46.828;29.480;2022-10-26T14:56:15;5.47;;;2.80;;
62289;SDS011;48284;46.828;29.480;2022-10-26T14:58:50;4.55;;;2.70;;
62289;SDS011;48284;46.828;29.480;2022-10-26T15:01:26;3.45;;;2.35;;
62289;SDS011;48284;46.828;29.480;2022-10-26T15:04:01;3.13;;;2.35;;
62289;SDS011;48284;46.828;29.480;2022-10-26T15:06:33;5.00;;;2.60;;
62289;SDS011;48284;46.828;29.480;2022-10-26T15:09:06;7.20;;;3.30;;
62289;SDS011;48284;46.828;29.480;2022-10-26T15:11:59;3.72;;;2.67;;
62289;SDS011;48284;46.828;29.480;2022-10-26T15:14:31;3.50;;;2.70;;
62289;SDS011;48284;46.828;29.480;2022-10-26T15:17:01;2.75;;;2.47;;
62289;SDS011;48284;46.828;29.480;2022-10-26T15:22:14;4.90;;;2.65;;
62289;SDS011;48284;46.828;29.480;2022-10-26T15:24:50;3.33;;;2.30;;
62289;SDS011;48284;46.828;29.480;2022-10-26T15:27:21;3.95;;;2.40;;
62289;SDS011;48284;46.828;29.480;2022-10-26T15:29:51;4.82;;;2.50;;
62289;SDS011;48284;46.828;29.480;2022-10-26T15:32:37;4.65;;;2.38;;
62289;SDS011;48284;46.828;29.480;2022-10-26T15:37:53;3.47;;;2.80;;
62289;SDS011;48284;46.828;29.480;2022-10-26T15:40:23;4.40;;;2.50;;
62289;SDS011;48284;46.828;29.480;2022-10-26T15:42:55;3.35;;;2.80;;
62289;SDS011;48284;46.828;29.480;2022-10-26T15:45:28;5.35;;;2.55;;
62289;SDS011;48284;46.828;29.480;2022-10-26T15:47:59;4.60;;;2.70;;
62289;SDS011;48284;46.828;29.480;2022-10-26T15:50:45;4.03;;;2.30;;
62289;SDS011;48284;46.828;29.480;2022-10-26T15:53:15;3.95;;;2.95;;
62289;SDS011;48284;46.828;29.480;2022-10-26T15:55:47;5.47;;;3.15;;
62289;SDS011;48284;46.828;29.480;2022-10-26T15:58:17;7.38;;;2.72;;
62289;SDS011;48284;46.828;29.480;2022-10-26T16:03:16;3.33;;;2.80;;
62289;SDS011;48284;46.828;29.480;2022-10-26T16:05:47;6.47;;;3.05;;
62289;SDS011;48284;46.828;29.480;2022-10-26T16:08:20;3.17;;;2.45;;